Time;durP1;ratioP1;P1;durP2;ratioP2;P2;SDS_P1;SDS_P2;PMS_P1;PMS_P2;Temp;Humidity;BMP_temperature;BMP_pressure;BME280_temperature;BME280_humidity;BME280_pressure;Samples;Min_cycle;Max_cycle;Signal;HPM_P1;HPM_P2
2022/07/13 00:01:10;;;;;;;1.48;0.98;;;;;;;15.03;100.00;99447.44;4981994;28;20070;-63
2022/07/13 00:03:36;;;;;;;0.70;0.70;;;;;;;14.99;100.00;99446.22;4980593;28;20113;-63
2022/07/13 00:06:02;;;;;;;1.50;0.90;;;;;;;14.96;100.00;99452.09;4983076;28;20030;-63
2022/07/13 00:08:27;;;;;;;1.33;0.80;;;;;;;14.87;100.00;99449.59;4987014;28;20038;-63
2022/07/13 00:10:52;;;;;;;0.80;0.80;;;;;;;14.81;100.00;99450.47;4986041;28;20037;-63
2022/07/13 00:13:18;;;;;;;1.05;0.93;;;;;;;14.75;100.00;99450.47;4976021;28;20428;-63
2022/07/13 00:15:43;;;;;;;0.85;0.82;;;;;;;14.85;100.00;99448.97;4980390;28;20030;-63
2022/07/13 00:18:09;;;;;;;5.32;1.00;;;;;;;14.85;100.00;99442.69;4980079;28;20031;-63
2022/07/13 00:20:34;;;;;;;2.38;1.20;;;;;;;14.82;100.00;99446.69;4984697;28;20481;-63
2022/07/13 00:22:59;;;;;;;2.72;1.30;;;;;;;14.83;100.00;99448.38;4979716;28;20041;-63
2022/07/13 00:25:25;;;;;;;1.73;1.05;;;;;;;14.78;100.00;99445.47;4983633;28;20030;-63
2022/07/13 00:27:50;;;;;;;4.00;1.25;;;;;;;14.70;100.00;99442.97;4985452;28;20026;-63
2022/07/13 00:30:16;;;;;;;1.40;0.98;;;;;;;14.67;100.00;99441.53;4985348;28;20065;-63
2022/07/13 00:32:41;;;;;;;2.33;1.10;;;;;;;14.73;100.00;99441.72;4978791;28;20034;-63
2022/07/13 00:35:07;;;;;;;1.40;1.00;;;;;;;14.97;100.00;99445.59;4979441;28;20142;-63
2022/07/13 00:37:32;;;;;;;1.23;0.93;;;;;;;15.00;100.00;99437.81;4984663;28;20398;-63
2022/07/13 00:39:58;;;;;;;1.42;1.00;;;;;;;14.90;100.00;99437.44;4979326;28;20037;-63
2022/07/13 00:42:23;;;;;;;1.13;0.90;;;;;;;14.81;100.00;99436.03;4975432;28;20030;-63
2022/07/13 00:44:48;;;;;;;5.50;1.10;;;;;;;14.73;100.00;99439.00;4979157;28;20473;-63
2022/07/13 00:47:15;;;;;;;2.58;0.90;;;;;;;14.69;100.00;99435.84;4978627;28;20037;-64
2022/07/13 00:49:41;;;;;;;1.35;0.90;;;;;;;14.67;100.00;99435.22;4981822;28;20027;-63
2022/07/13 00:52:07;;;;;;;1.17;0.90;;;;;;;14.60;100.00;99439.88;4974114;28;20033;-63
2022/07/13 00:54:32;;;;;;;3.47;0.90;;;;;;;14.53;100.00;99445.31;4972744;28;20026;-63
2022/07/13 00:57:01;;;;;;;1.67;0.90;;;;;;;14.58;100.00;99434.63;4976557;28;20061;-63
2022/07/13 00:59:26;;;;;;;3.03;1.00;;;;;;;14.73;100.00;99433.53;4977778;28;20394;-63
2022/07/13 01:01:53;;;;;;;1.45;1.13;;;;;;;14.66;100.00;99431.66;4983521;28;20026;-63
2022/07/13 01:04:21;;;;;;;1.95;1.08;;;;;;;14.61;100.00;99433.34;4982757;28;20050;-63
2022/07/13 01:06:47;;;;;;;2.90;1.00;;;;;;;14.45;100.00;99434.63;4978639;28;20351;-62
2022/07/13 01:09:12;;;;;;;1.17;0.90;;;;;;;14.39;100.00;99432.75;4977495;28;20041;-63
2022/07/13 01:11:39;;;;;;;1.63;1.05;;;;;;;14.29;100.00;99425.03;4978750;28;20030;-63
2022/07/13 01:14:04;;;;;;;4.13;1.00;;;;;;;14.23;100.00;99443.03;4989062;28;20153;-63
2022/07/13 01:16:31;;;;;;;1.52;1.10;;;;;;;14.21;100.00;99436.13;4983083;28;20405;-63
2022/07/13 01:18:57;;;;;;;4.47;0.90;;;;;;;14.18;100.00;99434.66;4983697;28;20044;-63
2022/07/13 01:21:23;;;;;;;1.80;0.98;;;;;;;14.18;100.00;99428.41;4985815;28;20030;-63
2022/07/13 01:23:48;;;;;;;2.35;1.00;;;;;;;14.27;100.00;99439.91;4983781;28;20156;-63
2022/07/13 01:26:14;;;;;;;1.45;1.02;;;;;;;14.33;100.00;99431.72;4983538;28;20470;-63
2022/07/13 01:28:39;;;;;;;1.75;0.88;;;;;;;14.35;100.00;99428.78;4984022;28;20108;-63
2022/07/13 01:31:05;;;;;;;2.38;0.70;;;;;;;14.52;100.00;99424.56;4987047;28;20032;-64
2022/07/13 01:33:30;;;;;;;1.52;0.93;;;;;;;14.53;100.00;99437.16;4975641;28;20149;-63
2022/07/13 01:35:56;;;;;;;1.55;1.00;;;;;;;14.60;100.00;99426.25;4981879;28;20592;-63
2022/07/13 01:38:23;;;;;;;3.53;0.90;;;;;;;14.60;100.00;99428.97;4973058;28;20466;-63
2022/07/13 01:40:48;;;;;;;1.23;0.80;;;;;;;14.55;100.00;99426.88;4982543;28;20117;-63
2022/07/13 01:43:14;;;;;;;1.13;1.00;;;;;;;14.61;100.00;99414.28;4982410;28;20221;-63
2022/07/13 01:45:46;;;;;;;1.38;0.85;;;;;;;14.65;100.00;99424.53;4974411;28;20062;-63
2022/07/13 01:48:11;;;;;;;1.05;0.80;;;;;;;14.74;100.00;99421.59;4976551;28;20038;-63
2022/07/13 01:50:37;;;;;;;3.10;0.80;;;;;;;14.70;100.00;99421.19;4974738;28;20100;-63
2022/07/13 01:53:02;;;;;;;2.00;0.90;;;;;;;14.64;100.00;99428.31;4983490;28;22022;-63
2022/07/13 01:55:28;;;;;;;3.35;1.20;;;;;;;14.76;100.00;99424.94;4982794;28;20492;-63
2022/07/13 01:58:00;;;;;;;2.10;1.10;;;;;;;14.78;100.00;99414.66;4978310;28;20462;-63
2022/07/13 02:00:26;;;;;;;4.57;0.88;;;;;;;14.80;100.00;99420.72;4975375;28;20113;-64
2022/07/13 02:02:52;;;;;;;1.70;1.00;;;;;;;14.74;100.00;99408.78;4986952;28;20026;-63
2022/07/13 02:05:17;;;;;;;1.20;1.00;;;;;;;14.80;100.00;99415.25;4979310;28;20675;-63
2022/07/13 02:07:43;;;;;;;1.20;0.90;;;;;;;14.82;100.00;99408.53;4976101;28;20042;-63
2022/07/13 02:10:10;;;;;;;1.83;1.17;;;;;;;15.04;100.00;99400.91;4980573;28;20038;-63
2022/07/13 02:12:36;;;;;;;2.80;0.90;;;;;;;15.06;100.00;99400.69;4973629;28;20391;-63
2022/07/13 02:15:01;;;;;;;5.22;1.10;;;;;;;14.99;100.00;99389.84;4976173;28;20025;-63
2022/07/13 02:17:27;;;;;;;2.05;1.00;;;;;;;14.99;100.00;99386.28;4969508;28;20157;-63
2022/07/13 02:19:52;;;;;;;1.50;1.10;;;;;;;14.91;100.00;99384.63;4985179;28;20078;-63
2022/07/13 02:22:18;;;;;;;1.60;1.13;;;;;;;14.87;100.00;99377.94;4981201;28;20031;-63
2022/07/13 02:24:43;;;;;;;2.05;1.10;;;;;;;14.77;100.00;99366.66;4978996;28;20106;-63
2022/07/13 02:27:09;;;;;;;1.33;0.90;;;;;;;14.73;100.00;99374.44;4984073;28;20030;-63
2022/07/13 02:29:34;;;;;;;1.17;0.90;;;;;;;14.69;100.00;99370.47;4977215;28;20035;-63
2022/07/13 02:32:00;;;;;;;1.60;0.90;;;;;;;14.66;100.00;99365.47;4982229;28;20058;-63
2022/07/13 02:34:27;;;;;;;1.98;0.98;;;;;;;14.58;100.00;99366.53;4985424;28;20026;-63
2022/07/13 02:36:56;;;;;;;2.15;1.00;;;;;;;14.53;100.00;99365.53;4977550;28;20059;-63
2022/07/13 02:39:22;;;;;;;1.38;1.08;;;;;;;14.63;100.00;99366.72;4975115;28;20655;-63
2022/07/13 02:41:49;;;;;;;7.70;1.00;;;;;;;14.63;100.00;99364.00;4975288;28;20129;-63
2022/07/13 02:44:15;;;;;;;3.75;1.10;;;;;;;14.56;100.00;99367.81;4978018;28;20037;-63
2022/07/13 02:46:40;;;;;;;1.77;1.13;;;;;;;14.50;100.00;99377.66;4976947;28;20034;-63
2022/07/13 02:49:06;;;;;;;1.17;0.98;;;;;;;14.43;100.00;99371.38;4979840;28;20467;-63
2022/07/13 02:51:31;;;;;;;1.33;0.90;;;;;;;14.30;100.00;99365.97;4979833;28;20034;-63
2022/07/13 02:53:56;;;;;;;3.05;1.00;;;;;;;14.20;100.00;99366.41;4975864;28;20113;-63
2022/07/13 02:56:22;;;;;;;1.42;1.10;;;;;;;14.13;100.00;99366.44;4981265;28;20077;-63
2022/07/13 02:58:47;;;;;;;1.88;1.02;;;;;;;14.29;100.00;99369.75;4994768;28;20036;-62
2022/07/13 03:01:12;;;;;;;1.50;1.10;;;;;;;14.40;100.00;99367.19;4978726;28;20037;-63
2022/07/13 03:03:38;;;;;;;1.85;1.10;;;;;;;14.42;100.00;99369.72;4987432;28;20030;-63
2022/07/13 03:06:04;;;;;;;2.70;1.17;;;;;;;14.56;100.00;99360.47;4976616;28;20030;-63
2022/07/13 03:08:29;;;;;;;5.35;1.00;;;;;;;14.55;100.00;99360.69;4980069;28;20097;-63
2022/07/13 03:10:55;;;;;;;1.67;1.40;;;;;;;14.52;100.00;99377.44;4977059;28;20040;-63
2022/07/13 03:13:20;;;;;;;1.60;1.30;;;;;;;14.60;100.00;99360.88;4979225;28;20041;-63
2022/07/13 03:15:45;;;;;;;2.63;1.35;;;;;;;14.49;100.00;99359.66;4977598;28;20378;-63
2022/07/13 03:18:11;;;;;;;1.80;1.30;;;;;;;14.48;100.00;99363.41;4976227;28;20045;-61
2022/07/13 03:20:36;;;;;;;3.40;1.15;;;;;;;14.45;100.00;99370.13;4977320;28;20034;-61
2022/07/13 03:23:01;;;;;;;1.45;1.00;;;;;;;14.50;100.00;99357.75;4987064;28;20050;-61
2022/07/13 03:25:27;;;;;;;2.22;1.10;;;;;;;14.60;100.00;99358.16;4987034;28;20597;-61
2022/07/13 03:27:52;;;;;;;1.65;1.05;;;;;;;14.62;100.00;99358.78;4980518;28;20030;-61
2022/07/13 03:30:18;;;;;;;2.22;1.08;;;;;;;14.65;100.00;99359.19;4976594;28;20052;-61
2022/07/13 03:32:43;;;;;;;1.10;1.00;;;;;;;14.76;100.00;99368.56;4982703;28;20057;-64
2022/07/13 03:35:10;;;;;;;1.73;1.05;;;;;;;14.63;100.00;99366.72;4983308;28;20061;-63
2022/07/13 03:37:36;;;;;;;2.85;1.10;;;;;;;14.56;100.00;99362.34;4981632;28;20411;-64
2022/07/13 03:40:02;;;;;;;2.05;1.30;;;;;;;14.56;100.00;99357.75;4983484;28;20029;-63
2022/07/13 03:42:28;;;;;;;2.35;1.13;;;;;;;14.59;100.00;99360.06;4988927;28;20038;-63
2022/07/13 03:44:53;;;;;;;1.80;1.25;;;;;;;14.56;100.00;99354.19;4985418;28;20650;-64
2022/07/13 03:47:19;;;;;;;2.67;1.10;;;;;;;14.53;100.00;99366.34;4985047;28;20064;-63
2022/07/13 03:49:44;;;;;;;1.27;1.00;;;;;;;14.45;100.00;99355.66;4976427;28;20494;-61
2022/07/13 03:52:09;;;;;;;5.60;1.17;;;;;;;14.37;100.00;99373.06;4976400;28;20037;-61
2022/07/13 03:54:35;;;;;;;1.63;1.30;;;;;;;14.45;100.00;99355.66;4983398;28;20223;-61
2022/07/13 03:57:00;;;;;;;2.50;1.10;;;;;;;14.59;100.00;99367.38;4984351;28;20034;-61
2022/07/13 03:59:25;;;;;;;2.35;1.48;;;;;;;14.49;100.00;99359.66;4975515;28;20030;-62
2022/07/13 04:01:51;;;;;;;4.28;1.50;;;;;;;14.38;100.00;99363.00;4981560;28;20026;-61
2022/07/13 04:04:16;;;;;;;1.48;1.23;;;;;;;14.43;100.00;99361.31;4985141;28;20033;-60
2022/07/13 04:06:42;;;;;;;1.58;1.15;;;;;;;14.51;100.00;99362.97;4988910;28;20030;-63
2022/07/13 04:09:07;;;;;;;2.85;1.10;;;;;;;14.54;100.00;99353.56;4978658;28;20077;-61
2022/07/13 04:11:32;;;;;;;3.58;1.38;;;;;;;14.42;100.00;99350.66;4986898;28;20129;-60
2022/07/13 04:13:58;;;;;;;2.40;1.33;;;;;;;14.46;100.00;99339.13;4987471;28;20026;-61
2022/07/13 04:16:23;;;;;;;2.05;1.00;;;;;;;14.41;100.00;99340.84;4982730;28;20056;-61
2022/07/13 04:18:48;;;;;;;4.45;1.30;;;;;;;14.35;100.00;99341.66;4984660;28;20034;-61
2022/07/13 04:21:14;;;;;;;3.58;1.30;;;;;;;14.37;100.00;99339.56;4985426;28;20027;-63
2022/07/13 04:23:40;;;;;;;2.45;1.40;;;;;;;14.41;100.00;99340.84;4988160;28;20035;-63
2022/07/13 04:26:05;;;;;;;2.20;1.50;;;;;;;14.49;100.00;99332.41;4986286;28;20061;-63
2022/07/13 04:28:31;;;;;;;6.32;1.30;;;;;;;14.48;100.00;99339.72;4979728;28;20022;-63
2022/07/13 04:30:56;;;;;;;1.33;1.10;;;;;;;14.56;100.00;99338.69;4985541;28;20026;-63
2022/07/13 04:33:22;;;;;;;3.28;1.65;;;;;;;14.65;100.00;99348.28;4978137;28;20406;-63
2022/07/13 04:35:47;;;;;;;3.10;1.60;;;;;;;14.75;100.00;99347.84;4989320;28;20415;-63
2022/07/13 04:38:13;;;;;;;2.30;1.23;;;;;;;14.82;100.00;99354.06;4978060;28;20035;-63
2022/07/13 04:40:39;;;;;;;2.55;1.08;;;;;;;14.92;100.00;99356.31;4977254;28;20813;-63
2022/07/13 04:43:05;;;;;;;2.92;1.08;;;;;;;14.99;100.00;99351.69;4986229;28;20030;-63
2022/07/13 04:45:32;;;;;;;2.80;1.15;;;;;;;15.07;100.00;99353.31;4980330;28;20030;-62
2022/07/13 04:47:58;;;;;;;2.53;1.30;;;;;;;15.17;100.00;99350.09;4979657;28;20431;-62
2022/07/13 04:50:23;;;;;;;4.43;1.38;;;;;;;15.25;100.00;99347.94;4985483;28;20041;-64
2022/07/13 04:52:49;;;;;;;3.88;1.40;;;;;;;15.30;100.00;99339.09;4978864;28;20039;-62
2022/07/13 04:55:14;;;;;;;3.33;1.33;;;;;;;15.33;100.00;99338.69;4979876;28;20080;-62
2022/07/13 04:57:39;;;;;;;2.10;1.35;;;;;;;15.25;100.00;99330.78;4984789;28;20058;-62
2022/07/13 05:00:06;;;;;;;3.17;1.60;;;;;;;15.30;100.00;99336.38;4976142;28;20034;-62
2022/07/13 05:02:32;;;;;;;2.75;1.60;;;;;;;15.37;100.00;99331.69;4983578;28;20100;-62
2022/07/13 05:04:57;;;;;;;4.85;1.55;;;;;;;15.43;100.00;99333.56;4982277;28;20462;-62
2022/07/13 05:07:23;;;;;;;4.78;1.35;;;;;;;15.52;100.00;99339.56;4977827;28;20040;-62
2022/07/13 05:09:48;;;;;;;4.28;1.70;;;;;;;15.58;100.00;99346.84;4977925;28;20582;-62
2022/07/13 05:12:14;;;;;;;3.35;1.88;;;;;;;15.70;100.00;99355.19;4981177;28;20045;-62
2022/07/13 05:14:39;;;;;;;2.28;1.38;;;;;;;15.79;100.00;99351.09;4973460;28;20569;-63
2022/07/13 05:17:04;;;;;;;3.30;1.33;;;;;;;15.88;100.00;99346.22;4990050;28;20505;-63
2022/07/13 05:19:30;;;;;;;2.20;1.10;;;;;;;16.09;100.00;99355.88;4982008;28;20117;-62
2022/07/13 05:21:55;;;;;;;2.97;1.38;;;;;;;16.31;100.00;99357.09;4974877;28;20118;-63
2022/07/13 05:24:21;;;;;;;6.85;2.08;;;;;;;16.49;100.00;99355.44;4971959;28;20050;-63
2022/07/13 05:26:46;;;;;;;5.10;1.55;;;;;;;16.64;100.00;99348.50;4972997;28;20057;-63
2022/07/13 05:29:11;;;;;;;1.20;1.08;;;;;;;17.00;100.00;99354.16;4972444;28;20332;-63
2022/07/13 05:31:37;;;;;;;9.85;1.70;;;;;;;17.23;100.00;99356.16;4980379;28;20129;-64
2022/07/13 05:34:02;;;;;;;3.42;1.05;;;;;;;17.60;98.29;99354.09;4981414;28;20031;-63
2022/07/13 05:36:29;;;;;;;1.35;1.10;;;;;;;17.99;94.05;99348.19;4985207;28;20030;-63
2022/07/13 05:38:54;;;;;;;2.88;1.50;;;;;;;18.36;86.75;99340.53;4974335;28;20455;-63
2022/07/13 05:41:19;;;;;;;2.70;1.48;;;;;;;18.46;86.70;99335.28;4979676;28;20038;-63
2022/07/13 05:43:46;;;;;;;4.10;1.45;;;;;;;18.59;85.61;99337.75;4982368;28;20144;-63
2022/07/13 05:46:12;;;;;;;3.15;1.45;;;;;;;18.93;81.04;99329.66;4989456;28;20042;-62
2022/07/13 05:48:37;;;;;;;4.03;1.83;;;;;;;19.36;76.98;99333.75;4977927;28;20305;-63
2022/07/13 05:51:03;;;;;;;6.95;2.92;;;;;;;19.53;73.56;99328.28;4981990;28;20617;-63
2022/07/13 05:53:28;;;;;;;13.82;3.50;;;;;;;19.63;73.60;99327.63;4986328;28;20615;-63
2022/07/13 05:55:54;;;;;;;6.55;2.78;;;;;;;19.67;73.76;99324.13;4973548;28;20454;-61
2022/07/13 05:58:21;;;;;;;4.85;2.80;;;;;;;19.70;73.06;99331.03;4975698;28;20034;-60
2022/07/13 06:00:46;;;;;;;4.38;1.65;;;;;;;19.76;74.02;99329.22;4979693;28;20030;-61
2022/07/13 06:03:12;;;;;;;4.13;1.45;;;;;;;19.93;73.88;99330.84;4985166;28;20030;-61
2022/07/13 06:05:37;;;;;;;2.08;1.20;;;;;;;20.26;72.55;99329.13;4979134;28;20022;-61
2022/07/13 06:08:03;;;;;;;2.97;1.35;;;;;;;20.53;71.58;99328.38;4985040;28;20114;-61
2022/07/13 06:10:28;;;;;;;5.45;1.33;;;;;;;20.81;71.86;99334.81;4982472;28;20061;-61
2022/07/13 06:12:54;;;;;;;5.82;1.90;;;;;;;21.01;72.90;99332.25;4983769;28;20037;-61
2022/07/13 06:15:19;;;;;;;4.07;1.85;;;;;;;21.40;70.79;99345.88;4977630;28;20455;-62
2022/07/13 06:17:45;;;;;;;5.60;1.60;;;;;;;21.65;70.82;99342.53;4977547;28;20034;-62
2022/07/13 06:20:10;;;;;;;2.47;1.30;;;;;;;21.79;68.47;99337.41;4981794;28;20042;-62
2022/07/13 06:22:36;;;;;;;1.98;1.30;;;;;;;22.12;67.93;99341.78;4983589;28;20045;-62
2022/07/13 06:25:03;;;;;;;2.08;0.70;;;;;;;22.57;64.20;99342.31;4976952;28;20030;-62
2022/07/13 06:27:29;;;;;;;1.83;0.85;;;;;;;22.94;61.63;99342.19;4977495;28;20027;-62
2022/07/13 06:29:55;;;;;;;1.52;0.80;;;;;;;23.38;58.82;99339.00;4975788;28;20044;-62
2022/07/13 06:32:20;;;;;;;4.47;1.00;;;;;;;23.76;56.72;99332.13;4974567;28;20526;-62
2022/07/13 06:34:46;;;;;;;3.42;0.80;;;;;;;23.84;55.59;99345.38;4981618;28;20185;-62
2022/07/13 06:37:11;;;;;;;6.45;0.60;;;;;;;24.28;54.42;99341.16;4981874;28;20034;-63
2022/07/13 06:39:37;;;;;;;5.55;0.90;;;;;;;24.59;54.76;99339.16;4982669;28;20085;-62
2022/07/13 06:42:02;;;;;;;3.92;0.85;;;;;;;24.89;52.41;99337.38;4986369;28;20034;-63
2022/07/13 06:44:27;;;;;;;15.10;1.23;;;;;;;25.11;51.15;99337.78;4984441;28;20030;-66
2022/07/13 06:46:53;;;;;;;2.47;0.98;;;;;;;24.97;51.79;99335.94;4982491;28;20029;-62
2022/07/13 06:49:18;;;;;;;7.55;1.08;;;;;;;24.89;51.43;99337.38;4983479;28;20149;-62
2022/07/13 06:51:44;;;;;;;10.02;1.10;;;;;;;25.61;50.57;99342.47;5005715;28;20113;-62
2022/07/13 06:54:09;;;;;;;6.38;0.98;;;;;;;25.83;49.82;99342.81;4988603;28;20109;-62
2022/07/13 06:56:35;;;;;;;5.82;0.70;;;;;;;27.14;47.49;99337.19;4993632;28;20039;-63
2022/07/13 06:59:00;;;;;;;4.88;0.47;;;;;;;27.38;44.73;99337.16;4983606;28;20109;-63
2022/07/13 07:01:26;;;;;;;1.02;0.45;;;;;;;28.62;41.74;99338.31;4980741;28;20022;-64
2022/07/13 07:03:51;;;;;;;5.25;0.80;;;;;;;29.30;40.38;99326.56;4976768;28;20359;-63
2022/07/13 07:06:17;;;;;;;6.32;0.60;;;;;;;29.15;39.56;99317.41;4982532;28;20474;-63
2022/07/13 07:08:42;;;;;;;2.13;0.57;;;;;;;28.90;39.46;99315.16;4983927;28;20030;-63
2022/07/13 07:11:08;;;;;;;3.55;0.50;;;;;;;31.14;36.09;99316.00;4981578;28;20030;-64
2022/07/13 07:13:33;;;;;;;8.45;0.60;;;;;;;31.84;34.44;99309.25;4986978;28;20613;-64
2022/07/13 07:16:00;;;;;;;2.70;0.60;;;;;;;31.20;35.23;99326.72;4978106;28;20072;-64
2022/07/13 07:18:27;;;;;;;7.82;1.00;;;;;;;32.01;33.87;99327.97;4978400;28;20041;-64
2022/07/13 07:20:52;;;;;;;4.38;0.80;;;;;;;33.13;32.22;99322.22;4982341;28;20702;-64
2022/07/13 07:23:18;;;;;;;7.50;0.75;;;;;;;33.78;31.17;99329.09;4986404;28;20039;-64
2022/07/13 07:25:44;;;;;;;8.15;1.08;;;;;;;34.25;30.60;99323.16;4980929;28;20029;-64
2022/07/13 07:28:09;;;;;;;10.05;1.00;;;;;;;34.72;30.25;99319.13;4979897;28;20058;-64
2022/07/13 07:30:36;;;;;;;13.20;0.80;;;;;;;35.63;28.84;99310.25;4976421;28;20717;-64
2022/07/13 07:33:02;;;;;;;8.20;0.80;;;;;;;35.93;28.11;99318.31;4985668;28;20046;-64
2022/07/13 07:35:27;;;;;;;4.80;0.75;;;;;;;36.72;27.09;99312.75;4979927;28;20069;-64
2022/07/13 07:37:53;;;;;;;3.20;0.82;;;;;;;35.52;28.66;99318.34;4981286;28;20470;-62
2022/07/13 07:40:18;;;;;;;3.70;0.88;;;;;;;35.95;28.09;99319.59;4973919;28;20026;-62
2022/07/13 07:42:44;;;;;;;7.22;0.80;;;;;;;33.88;30.89;99318.59;4977196;28;20026;-62
2022/07/13 07:45:10;;;;;;;7.13;0.90;;;;;;;31.39;34.39;99315.22;4976171;28;20066;-62
2022/07/13 07:47:36;;;;;;;8.80;0.88;;;;;;;31.06;35.32;99312.06;4986824;28;20038;-62
2022/07/13 07:50:03;;;;;;;7.30;0.70;;;;;;;30.42;35.87;99312.56;4978528;28;20054;-62
2022/07/13 07:52:28;;;;;;;5.95;0.98;;;;;;;30.47;36.25;99317.13;4977070;28;20093;-62
2022/07/13 07:54:54;;;;;;;10.63;0.80;;;;;;;31.06;35.03;99314.03;4975672;28;20522;-62
2022/07/13 07:57:19;;;;;;;4.05;0.70;;;;;;;33.75;31.26;99304.53;4976226;28;20030;-62
2022/07/13 07:59:45;;;;;;;2.25;0.65;;;;;;;35.02;29.32;99305.59;4978355;28;20034;-62
2022/07/13 08:02:10;;;;;;;2.40;0.60;;;;;;;35.43;28.83;99303.63;4977621;28;21240;-62
2022/07/13 08:04:35;;;;;;;5.78;0.70;;;;;;;35.44;28.61;99304.44;4979758;28;20086;-62
2022/07/13 08:07:01;;;;;;;3.47;0.95;;;;;;;34.38;29.67;99297.91;4976625;28;20030;-62
2022/07/13 08:09:27;;;;;;;6.10;0.70;;;;;;;35.36;29.13;99294.97;4973720;28;20026;-62
2022/07/13 08:11:52;;;;;;;4.85;0.90;;;;;;;36.24;28.27;99286.59;4976535;28;20018;-62
2022/07/13 08:14:18;;;;;;;3.75;0.50;;;;;;;34.37;29.86;99291.44;4981459;28;20027;-62
2022/07/13 08:16:44;;;;;;;2.13;0.70;;;;;;;32.67;31.61;99291.19;4984743;28;20113;-62
2022/07/13 08:19:10;;;;;;;1.50;0.50;;;;;;;31.18;33.52;99295.47;4981881;28;20070;-62
2022/07/13 08:21:35;;;;;;;3.63;0.63;;;;;;;30.61;33.96;99292.72;4988419;28;20030;-62
2022/07/13 08:24:02;;;;;;;3.80;0.43;;;;;;;28.75;36.27;99286.53;4978522;28;20053;-62
2022/07/13 08:26:29;;;;;;;3.05;0.50;;;;;;;30.01;35.36;99294.09;4979316;28;20364;-62
2022/07/13 08:28:56;;;;;;;3.25;0.70;;;;;;;30.48;33.95;99285.31;4983563;28;20030;-62
2022/07/13 08:31:23;;;;;;;2.78;0.70;;;;;;;30.40;35.02;99278.53;4980817;28;20085;-62
2022/07/13 08:39:21;;;;;;;4.32;0.60;;;;;;;34.35;29.99;99278.91;4980719;28;20049;-62
2022/07/13 08:41:47;;;;;;;4.15;0.85;;;;;;;35.25;28.81;99276.97;4982543;28;20027;-62
2022/07/13 08:44:14;;;;;;;3.58;0.47;;;;;;;35.76;28.10;99275.25;4980104;28;20073;-62
2022/07/13 08:46:40;;;;;;;2.60;0.50;;;;;;;36.51;26.23;99284.00;4977771;28;20048;-62
2022/07/13 08:49:06;;;;;;;1.13;0.45;;;;;;;37.59;24.58;99271.16;4976561;28;20030;-62
2022/07/13 08:51:32;;;;;;;0.47;0.32;;;;;;;38.91;23.63;99278.31;4975604;28;20041;-63
2022/07/13 08:53:59;;;;;;;0.90;0.40;;;;;;;39.76;23.11;99274.09;4986515;28;20031;-62
2022/07/13 08:56:24;;;;;;;0.55;0.38;;;;;;;38.91;23.69;99274.63;4982435;28;20115;-63
2022/07/13 08:58:51;;;;;;;2.00;0.47;;;;;;;38.20;23.63;99269.47;4978392;28;20889;-62
2022/07/13 09:01:16;;;;;;;1.98;0.50;;;;;;;38.09;24.45;99277.75;4978925;28;20086;-63
2022/07/13 09:03:42;;;;;;;2.28;0.43;;;;;;;38.10;24.82;99265.25;4975019;28;20023;-62
2022/07/13 09:06:08;;;;;;;0.65;0.30;;;;;;;36.27;24.92;99268.94;4976639;28;20340;-62
2022/07/13 09:08:42;;;;;;;0.82;0.40;;;;;;;36.22;24.97;99274.84;4976141;28;20029;-62
2022/07/13 09:11:07;;;;;;;0.60;0.40;;;;;;;36.33;25.63;99278.75;4980640;28;20022;-63
2022/07/13 09:13:44;;;;;;;0.20;0.20;;;;;;;38.12;23.76;99271.38;4977688;28;20032;-65
2022/07/13 09:16:21;;;;;;;4.00;0.40;;;;;;;38.74;22.52;99284.47;4977518;28;20500;-64
2022/07/13 09:18:47;;;;;;;1.30;0.40;;;;;;;39.69;21.30;99277.66;4980103;28;20048;-64
2022/07/13 09:21:13;;;;;;;0.40;0.40;;;;;;;39.22;21.42;99276.28;4994145;23;20109;-58
2022/07/13 09:23:39;;;;;;;2.90;0.32;;;;;;;39.30;21.67;99278.03;4974743;28;20455;-58
2022/07/13 09:26:04;;;;;;;0.68;0.45;;;;;;;39.26;22.09;99276.34;4969681;28;20027;-58
2022/07/13 09:28:47;;;;;;;0.60;0.32;;;;;;;39.35;21.21;99280.50;4969032;28;20033;-58
2022/07/13 09:31:13;;;;;;;1.30;0.38;;;;;;;38.87;21.88;99273.75;4967546;28;20057;-58
2022/07/13 09:33:40;;;;;;;2.53;0.30;;;;;;;39.08;22.04;99273.28;4955518;28;20455;-58
2022/07/13 09:36:14;;;;;;;0.82;0.32;;;;;;;39.90;20.46;99268.59;4964412;28;20117;-58
2022/07/13 09:38:42;;;;;;;1.67;0.30;;;;;;;39.33;21.25;99276.44;4968353;28;20117;-58
2022/07/13 09:41:17;;;;;;;0.73;0.32;;;;;;;39.61;20.36;99271.09;4969653;28;20053;-58
2022/07/13 09:47:01;;;;;;;0.95;0.43;;;;;;;38.76;20.25;99276.44;4963215;28;20481;-58
2022/07/13 09:49:29;;;;;;;2.15;0.40;;;;;;;39.59;20.18;99279.19;4962602;28;20057;-58
2022/07/13 09:51:57;;;;;;;;;;;;;;;39.81;20.92;99277.44;4966372;28;20541;-58
2022/07/13 09:54:28;;;;;;;1.35;0.40;;;;;;;39.87;20.06;99278.69;4963359;28;19913;-58
2022/07/13 09:56:58;;;;;;;5.22;0.45;;;;;;;40.34;19.51;99269.84;4964258;28;20030;-58
2022/07/13 09:59:24;;;;;;;1.25;0.40;;;;;;;39.68;20.62;99261.88;4962702;28;20030;-58
2022/07/13 10:01:51;;;;;;;2.58;0.32;;;;;;;41.34;19.61;99271.28;4957480;28;20042;-57
2022/07/13 10:04:17;;;;;;;0.47;0.30;;;;;;;41.45;19.17;99264.84;4966451;28;20054;-57
2022/07/13 10:06:43;;;;;;;2.38;0.28;;;;;;;41.72;17.14;99259.69;4963703;28;20060;-57
2022/07/13 10:09:10;;;;;;;0.75;0.40;;;;;;;41.74;18.36;99268.59;4964445;28;20470;-57
2022/07/13 10:11:35;;;;;;;1.60;0.30;;;;;;;41.42;19.27;99262.81;4960462;28;20070;-58
2022/07/13 10:14:01;;;;;;;0.40;0.20;;;;;;;40.87;19.35;99263.75;4960672;28;20023;-57
2022/07/13 10:16:31;;;;;;;3.60;0.30;;;;;;;41.44;18.91;99264.03;4960922;28;20034;-58
2022/07/13 10:19:03;;;;;;;1.30;0.40;;;;;;;41.47;18.56;99257.53;4969411;28;20793;-58
2022/07/13 10:22:09;;;;;;;1.10;0.30;;;;;;;39.47;20.08;99268.13;4967444;28;20069;-58
2022/07/13 10:24:36;;;;;;;0.37;0.30;;;;;;;40.65;19.46;99260.78;4964738;28;20518;-58
2022/07/13 10:27:21;;;;;;;1.48;0.30;;;;;;;41.86;17.93;99259.69;4968571;28;20049;-58
2022/07/13 10:29:48;;;;;;;0.52;0.20;;;;;;;41.77;18.46;99254.41;4967452;28;20035;-58
2022/07/13 10:32:16;;;;;;;0.77;0.45;;;;;;;40.37;18.38;99250.00;4970137;28;20042;-58
2022/07/13 10:34:51;;;;;;;1.08;0.30;;;;;;;39.83;18.70;99255.19;4980464;28;20033;-58
2022/07/13 10:37:17;;;;;;;1.75;0.38;;;;;;;40.82;18.51;99247.09;4968783;28;20045;-56
2022/07/13 10:40:10;;;;;;;0.80;0.20;;;;;;;40.64;18.66;99247.78;4969159;28;20022;-56
2022/07/13 10:42:53;;;;;;;0.65;0.20;;;;;;;41.07;17.89;99247.22;4962802;28;20042;-57
2022/07/13 10:45:41;;;;;;;0.50;0.20;;;;;;;41.03;17.58;99241.56;4977129;28;20019;-57
2022/07/13 10:48:07;;;;;;;1.48;0.57;;;;;;;39.90;18.35;99248.78;4964308;28;20699;-57
2022/07/13 10:50:45;;;;;;;0.82;0.40;;;;;;;41.11;17.83;99243.22;4968864;28;20089;-57
2022/07/13 10:53:12;;;;;;;0.80;0.30;;;;;;;41.30;17.81;99238.44;4965264;28;20038;-57
2022/07/13 10:55:46;;;;;;;1.73;0.50;;;;;;;40.02;18.19;99234.31;4959410;28;20035;-57
2022/07/13 10:58:29;;;;;;;0.50;0.20;;;;;;;40.00;18.67;99230.25;4964065;28;20038;-57
2022/07/13 11:00:56;;;;;;;0.93;0.30;;;;;;;39.38;18.78;99228.81;4975174;28;20046;-56
2022/07/13 11:03:27;;;;;;;0.40;0.30;;;;;;;38.24;19.92;99219.47;4960915;28;20031;-58
2022/07/13 11:06:07;;;;;;;0.82;0.28;;;;;;;37.85;21.01;99215.94;4969881;28;20031;-58
2022/07/13 11:08:33;;;;;;;1.15;0.30;;;;;;;39.02;19.09;99219.03;4961791;28;20034;-57
2022/07/13 11:11:15;;;;;;;0.22;0.17;;;;;;;42.02;18.02;99211.81;4966012;28;20031;-57
2022/07/13 11:13:44;;;;;;;1.13;0.30;;;;;;;43.97;16.64;99210.78;4968748;28;20355;-58
2022/07/13 11:16:10;;;;;;;1.70;0.30;;;;;;;44.40;16.24;99212.44;4967496;28;20053;-58
2022/07/13 11:18:37;;;;;;;0.52;0.35;;;;;;;44.75;15.61;99207.56;4964832;28;20664;-57
2022/07/13 11:21:18;;;;;;;0.80;0.30;;;;;;;43.60;16.09;99200.03;4968373;28;20401;-58
2022/07/13 11:26:59;;;;;;;0.75;0.32;;;;;;;42.67;14.68;99206.06;4968837;28;20082;-57
2022/07/13 11:29:53;;;;;;;1.75;0.35;;;;;;;44.05;14.20;99202.16;4959772;28;20041;-57
2022/07/13 11:32:20;;;;;;;1.92;0.20;;;;;;;43.51;14.87;99197.59;4986702;28;20034;-57
2022/07/13 11:34:46;;;;;;;1.07;0.30;;;;;;;42.40;15.09;99192.31;4963677;28;20027;-57
2022/07/13 11:37:13;;;;;;;2.05;0.28;;;;;;;42.53;14.79;99191.91;4971646;28;20041;-57
2022/07/13 11:39:39;;;;;;;0.98;0.30;;;;;;;41.28;16.00;99190.56;4962636;28;20033;-57